Sodak Park, South Dakota
Current Conditions -  °F | °C
As of 2:53 PM on Tuesday 27 Jan 2015 (Local Time) from KVVV Reporting Station
Haze Haze  
Wind Chill: 21°   Ceiling: 200
Heat Index: 30°   Visibility: 4mi
Dew Point: 28°   Wind: 12mph
Humidity: 93%   Direction: 140°SE
Pressure: 30.04"   Gusts: 17mph
Location:  45.4152°N, 96.8664°W
Report Text: KVVV 272053Z AUTO 14010G15KT 4SM BR OVC002 M01/M02 A3004 RMK AO2
Loading
Personal Weather Stations






























Interactive Weather Map New forecast layout! Learn more

10-Day Weather Forecast

Advertisements
Track Severe Weather on mobile